createdAt,value
2022-10-31T00:00:54.351Z,7.45
2022-10-31T00:05:55.755Z,7.43
2022-10-31T00:10:57.116Z,6.88
2022-10-31T00:15:58.507Z,7.47
2022-10-31T00:21:03.107Z,7.72
2022-10-31T00:26:04.858Z,6.03
2022-10-31T00:31:07.692Z,6.50
2022-10-31T00:36:17.279Z,5.75
2022-10-31T00:41:18.736Z,6.25
2022-10-31T00:46:20.098Z,6.07
2022-10-31T00:51:21.456Z,6.22
2022-10-31T00:56:22.814Z,6.22
2022-10-31T01:01:24.310Z,5.95
2022-10-31T01:06:25.739Z,5.63
2022-10-31T01:11:27.143Z,5.93
2022-10-31T01:16:30.256Z,5.85
2022-10-31T01:21:31.649Z,6.07
2022-10-31T01:26:33.323Z,6.10
2022-10-31T01:31:36.131Z,5.72
2022-10-31T01:36:38.376Z,5.35
2022-10-31T01:41:41.875Z,5.18
2022-10-31T01:47:00.690Z,5.95
2022-10-31T01:52:05.975Z,5.70
2022-10-31T01:57:07.899Z,5.57
2022-10-31T02:02:09.422Z,5.47
2022-10-31T02:07:32.227Z,5.45
2022-10-31T02:12:33.927Z,5.30
2022-10-31T02:17:35.296Z,5.72
2022-10-31T02:23:11.397Z,4.95
2022-10-31T02:28:37.383Z,5.15
2022-10-31T02:33:58.738Z,5.50
2022-10-31T02:39:14.011Z,5.35
2022-10-31T02:44:27.556Z,5.25
2022-10-31T02:49:34.714Z,5.30
2022-10-31T02:54:36.070Z,4.90
2022-10-31T02:59:45.851Z,4.70
2022-10-31T03:04:58.722Z,5.07
2022-10-31T03:10:21.123Z,5.32
2022-10-31T03:15:24.952Z,4.60
2022-10-31T03:20:30.732Z,4.97
2022-10-31T03:25:32.094Z,4.72
2022-10-31T03:30:34.319Z,4.43
2022-10-31T03:35:35.696Z,4.50
2022-10-31T03:40:37.470Z,4.10
2022-10-31T03:45:41.850Z,4.75
2022-10-31T03:51:22.886Z,4.63
2022-10-31T03:56:38.608Z,4.25
2022-10-31T04:01:42.240Z,4.40
2022-10-31T04:06:43.820Z,4.78
2022-10-31T04:11:48.008Z,4.22
2022-10-31T04:16:49.370Z,3.97
2022-10-31T04:21:50.728Z,3.97
2022-10-31T04:26:52.104Z,4.07
2022-10-31T04:31:53.457Z,4.18
2022-10-31T04:36:54.818Z,3.88
2022-10-31T04:41:56.187Z,4.40
2022-10-31T04:46:57.543Z,3.88
2022-10-31T04:51:58.926Z,3.85
2022-10-31T04:57:00.292Z,4.30
2022-10-31T05:02:01.776Z,3.83
2022-10-31T05:07:03.212Z,3.83
2022-10-31T05:12:04.635Z,3.47
2022-10-31T05:17:05.994Z,3.72
2022-10-31T05:22:07.358Z,3.65
2022-10-31T05:27:08.730Z,3.60
2022-10-31T05:32:10.090Z,3.85
2022-10-31T05:37:11.447Z,3.60
2022-10-31T05:42:12.815Z,3.30
2022-10-31T05:47:14.171Z,3.80
2022-10-31T05:52:15.553Z,3.17
2022-10-31T05:57:16.932Z,3.00
2022-10-31T06:02:18.295Z,3.13
2022-10-31T06:07:19.707Z,2.95
2022-10-31T06:12:21.064Z,3.03
2022-10-31T06:17:22.424Z,2.78
2022-10-31T06:22:23.792Z,3.13
2022-10-31T06:27:25.188Z,3.00
2022-10-31T06:32:26.579Z,2.80
2022-10-31T06:37:27.944Z,2.78
2022-10-31T06:42:29.323Z,3.30
2022-10-31T06:47:30.693Z,2.83
2022-10-31T06:52:32.056Z,2.67
2022-10-31T06:57:33.419Z,2.80
2022-10-31T07:02:34.838Z,2.95
2022-10-31T07:07:36.252Z,2.40
2022-10-31T07:12:37.626Z,3.08
2022-10-31T07:17:39.007Z,2.72
2022-10-31T07:22:40.411Z,2.80
2022-10-31T07:27:43.015Z,2.50
2022-10-31T07:32:48.539Z,2.95
2022-10-31T07:37:49.949Z,2.92
2022-10-31T07:42:52.343Z,2.72
2022-10-31T07:47:53.727Z,2.83
2022-10-31T07:53:05.378Z,2.70
2022-10-31T07:58:08.295Z,2.25
2022-10-31T08:03:14.369Z,2.35
2022-10-31T08:08:15.804Z,2.85
2022-10-31T08:13:17.187Z,2.38
2022-10-31T08:18:18.562Z,2.65
2022-10-31T08:23:19.960Z,2.60
2022-10-31T08:28:21.332Z,2.65
2022-10-31T08:33:22.692Z,2.95
2022-10-31T08:38:24.051Z,2.65
2022-10-31T08:43:25.455Z,2.30
2022-10-31T08:48:26.819Z,2.60
2022-10-31T08:53:28.214Z,2.83
2022-10-31T08:58:29.583Z,2.60
2022-10-31T09:03:31.699Z,2.55
2022-10-31T09:08:33.394Z,2.40
2022-10-31T09:13:40.249Z,2.58
2022-10-31T09:18:42.632Z,2.45
2022-10-31T09:23:44.016Z,2.63
2022-10-31T09:28:45.777Z,2.33
2022-10-31T09:33:47.163Z,2.88
2022-10-31T09:38:48.537Z,2.63
2022-10-31T09:44:14.775Z,2.63
2022-10-31T09:49:52.121Z,2.20
2022-10-31T09:54:55.660Z,2.40
2022-10-31T09:59:57.029Z,2.75
2022-10-31T10:05:12.306Z,2.83
2022-10-31T10:10:24.280Z,2.35
2022-10-31T10:15:56.444Z,2.65
2022-10-31T10:21:11.472Z,2.30
2022-10-31T10:26:18.176Z,2.50
2022-10-31T10:31:25.339Z,2.50
2022-10-31T10:36:35.450Z,2.17
2022-10-31T10:41:36.815Z,2.63
2022-10-31T10:47:07.171Z,2.20
2022-10-31T10:52:51.331Z,2.50
2022-10-31T10:57:54.892Z,2.70
2022-10-31T11:02:56.276Z,2.60
2022-10-31T11:07:57.639Z,2.40
2022-10-31T11:13:05.074Z,2.63
2022-10-31T11:18:06.451Z,2.38
2022-10-31T11:23:27.645Z,2.60
2022-10-31T11:28:30.328Z,2.60
2022-10-31T11:33:35.804Z,2.25
2022-10-31T11:38:41.678Z,2.33
2022-10-31T11:48:54.982Z,2.60
2022-10-31T11:54:01.856Z,2.85
2022-10-31T11:59:06.482Z,2.63
2022-10-31T12:04:11.406Z,2.72
2022-10-31T12:09:22.357Z,2.53
2022-10-31T12:14:35.859Z,2.42
2022-10-31T12:19:42.932Z,2.63
2022-10-31T12:24:55.877Z,2.53
2022-10-31T12:30:10.691Z,2.40
2022-10-31T12:35:33.539Z,2.60
2022-10-31T12:40:49.464Z,2.63
2022-10-31T12:45:55.602Z,2.22
2022-10-31T12:51:29.655Z,2.50
2022-10-31T12:56:43.632Z,2.60
2022-10-31T13:01:54.880Z,2.40
2022-10-31T13:06:59.168Z,2.80
2022-10-31T13:12:04.480Z,2.40
2022-10-31T13:17:05.927Z,2.30
2022-10-31T13:22:24.556Z,2.40
2022-10-31T13:27:36.846Z,2.33
2022-10-31T13:33:08.554Z,2.83
2022-10-31T13:38:14.851Z,2.22
2022-10-31T13:43:24.527Z,2.40
2022-10-31T13:48:25.716Z,2.60
2022-10-31T13:53:37.895Z,2.65
2022-10-31T13:58:39.267Z,2.72
2022-10-31T14:09:02.761Z,2.60
2022-10-31T14:14:04.139Z,2.30
2022-10-31T14:19:07.901Z,2.30
2022-10-31T14:24:17.759Z,2.55
2022-10-31T14:29:18.980Z,2.95
2022-10-31T14:34:36.488Z,2.40
2022-10-31T14:40:02.738Z,2.20
2022-10-31T14:45:33.480Z,2.30
2022-10-31T14:50:53.966Z,2.42
2022-10-31T14:55:56.115Z,2.63
2022-10-31T15:00:57.698Z,2.47
2022-10-31T15:06:13.407Z,2.63
2022-10-31T15:11:17.723Z,3.08
2022-10-31T15:16:21.919Z,2.92
2022-10-31T15:21:24.490Z,3.00
2022-10-31T15:26:41.335Z,2.90
2022-10-31T15:31:56.163Z,2.90
2022-10-31T15:36:57.522Z,2.93
2022-10-31T15:41:59.356Z,3.22
2022-10-31T15:47:20.041Z,3.20
2022-10-31T15:52:32.061Z,3.03
2022-10-31T15:57:33.621Z,2.70
2022-10-31T16:02:35.102Z,2.83
2022-10-31T16:07:36.519Z,2.72
2022-10-31T16:12:38.644Z,2.95
2022-10-31T16:17:41.851Z,2.95
2022-10-31T16:22:43.238Z,2.78
2022-10-31T16:27:55.238Z,2.67
2022-10-31T16:33:00.661Z,2.80
2022-10-31T16:38:02.479Z,3.60
2022-10-31T16:43:04.308Z,2.72
2022-10-31T16:48:09.751Z,2.90
2022-10-31T16:53:15.033Z,3.30
2022-10-31T16:58:24.764Z,2.83
2022-10-31T17:03:26.223Z,3.40
2022-10-31T17:08:27.599Z,2.97
2022-10-31T17:13:30.532Z,2.92
2022-10-31T17:18:32.386Z,3.33
2022-10-31T17:23:33.747Z,2.80
2022-10-31T17:28:35.111Z,3.05
2022-10-31T17:33:36.476Z,2.95
2022-10-31T17:38:38.304Z,3.20
2022-10-31T17:43:39.810Z,3.22
2022-10-31T17:48:41.652Z,3.30
2022-10-31T17:53:43.018Z,2.90
2022-10-31T17:58:44.657Z,3.08
2022-10-31T18:03:46.069Z,3.40
2022-10-31T18:08:47.555Z,3.28
2022-10-31T18:13:56.378Z,3.20
2022-10-31T18:19:01.908Z,3.40
2022-10-31T18:24:03.399Z,3.47
2022-10-31T18:29:04.772Z,3.28
2022-10-31T18:34:06.131Z,3.45
2022-10-31T18:39:07.490Z,3.67
2022-10-31T18:44:08.866Z,3.72
2022-10-31T18:49:10.585Z,3.80
2022-10-31T18:54:12.151Z,4.10
2022-10-31T18:59:13.541Z,4.72
2022-10-31T19:04:14.923Z,3.92
2022-10-31T19:09:16.283Z,4.80
2022-10-31T19:14:17.643Z,4.40
2022-10-31T19:19:20.425Z,5.15
2022-10-31T19:24:21.907Z,5.13
2022-10-31T19:29:23.290Z,5.45
2022-10-31T19:34:24.654Z,5.72
2022-10-31T19:39:27.056Z,5.50
2022-10-31T19:44:30.700Z,5.80
2022-10-31T19:49:32.103Z,6.20
2022-10-31T19:54:33.458Z,6.18
2022-10-31T19:59:39.156Z,5.70
2022-10-31T20:04:40.932Z,5.53
2022-10-31T20:09:45.024Z,6.32
2022-10-31T20:14:46.392Z,5.95
2022-10-31T20:19:47.750Z,5.55
2022-10-31T20:24:49.179Z,5.90
2022-10-31T20:29:50.539Z,5.80
2022-10-31T20:34:51.921Z,5.28
2022-10-31T20:39:55.721Z,5.05
2022-10-31T20:44:58.057Z,5.35
2022-10-31T20:49:59.419Z,5.40
2022-10-31T20:55:00.783Z,4.43
2022-10-31T21:00:02.376Z,4.68
2022-10-31T21:05:08.159Z,5.30
2022-10-31T21:10:14.634Z,5.05
2022-10-31T21:15:16.099Z,5.70
2022-10-31T21:20:17.452Z,5.20
2022-10-31T21:25:18.813Z,5.18
2022-10-31T21:30:20.223Z,5.30
2022-10-31T21:35:21.739Z,5.30
2022-10-31T21:40:23.106Z,5.88
2022-10-31T21:45:24.555Z,5.20
2022-10-31T21:50:26.030Z,5.00
2022-10-31T21:55:27.387Z,5.25
2022-10-31T22:00:28.750Z,5.88
2022-10-31T22:05:30.120Z,5.38
2022-10-31T22:10:31.479Z,5.72
2022-10-31T22:15:32.843Z,5.60
2022-10-31T22:20:34.210Z,5.65
2022-10-31T22:25:37.171Z,5.88
2022-10-31T22:30:38.632Z,5.88
2022-10-31T22:35:39.991Z,5.65
2022-10-31T22:40:41.357Z,5.78
2022-10-31T22:45:42.788Z,6.32
2022-10-31T22:50:44.162Z,6.15
2022-10-31T22:55:45.566Z,6.68
2022-10-31T23:00:46.948Z,5.53
2022-10-31T23:05:57.074Z,7.05
2022-10-31T23:10:58.431Z,6.18
2022-10-31T23:15:59.826Z,6.05
2022-10-31T23:21:01.569Z,6.75
2022-10-31T23:26:21.491Z,5.80
2022-10-31T23:31:22.850Z,6.22
2022-10-31T23:36:24.226Z,6.07
2022-10-31T23:41:25.583Z,6.35
2022-10-31T23:46:27.039Z,5.70
2022-10-31T23:51:28.567Z,6.25
2022-10-31T23:56:29.927Z,5.82
